createdAt,value
2018-03-27T00:01:39.280Z,2.13
2018-03-27T00:04:14.362Z,2.20
2018-03-27T00:06:49.283Z,1.77
2018-03-27T00:09:24.127Z,2.20
2018-03-27T00:11:59.218Z,3.00
2018-03-27T00:14:35.105Z,1.70
2018-03-27T00:17:10.769Z,2.67
2018-03-27T00:19:47.273Z,1.77
2018-03-27T00:22:23.309Z,2.73
2018-03-27T00:24:58.489Z,1.70
2018-03-27T00:27:46.210Z,1.97
2018-03-27T00:30:38.785Z,2.83
2018-03-27T00:33:31.498Z,2.30
2018-03-27T00:36:24.253Z,2.60
2018-03-27T00:39:16.910Z,2.10
2018-03-27T00:44:57.596Z,2.27
2018-03-27T00:47:33.136Z,2.20
2018-03-27T00:50:08.277Z,2.10
2018-03-27T00:52:44.439Z,2.20
2018-03-27T00:55:20.120Z,2.77
2018-03-27T00:57:55.719Z,3.00
2018-03-27T01:00:30.589Z,2.70
2018-03-27T01:03:06.281Z,2.50
2018-03-27T01:05:41.731Z,2.30
2018-03-27T01:08:17.002Z,2.07
2018-03-27T01:10:51.841Z,2.20
2018-03-27T01:13:27.903Z,2.30
2018-03-27T01:16:03.931Z,2.70
2018-03-27T01:18:40.495Z,2.00
2018-03-27T01:21:15.967Z,2.13
2018-03-27T01:23:51.538Z,2.20
2018-03-27T01:26:26.752Z,2.10
2018-03-27T01:29:01.922Z,2.33
2018-03-27T01:31:37.461Z,2.67
2018-03-27T01:34:12.464Z,2.80
2018-03-27T01:36:47.304Z,2.60
2018-03-27T01:39:22.476Z,2.57
2018-03-27T01:41:57.678Z,2.40
2018-03-27T01:44:32.922Z,1.97
2018-03-27T01:47:08.184Z,2.67
2018-03-27T01:49:43.558Z,3.10
2018-03-27T01:52:19.868Z,2.70
2018-03-27T01:54:54.902Z,2.80
2018-03-27T01:57:29.732Z,3.20
2018-03-27T02:00:04.973Z,2.33
2018-03-27T02:02:40.624Z,2.80
2018-03-27T02:05:16.178Z,1.90
2018-03-27T02:07:52.024Z,3.63
2018-03-27T02:10:27.267Z,2.17
2018-03-27T02:13:07.829Z,2.70
2018-03-27T02:15:48.803Z,2.87
2018-03-27T02:18:29.981Z,4.03
2018-03-27T02:21:10.649Z,2.90
2018-03-27T02:23:45.890Z,2.67
2018-03-27T02:26:21.230Z,3.50
2018-03-27T02:28:56.367Z,2.30
2018-03-27T02:31:31.612Z,2.63
2018-03-27T02:34:06.945Z,1.90
2018-03-27T02:36:41.696Z,2.70
2018-03-27T02:39:17.124Z,2.60
2018-03-27T02:41:52.571Z,2.40
2018-03-27T02:44:27.808Z,2.00
2018-03-27T02:47:02.987Z,2.30
2018-03-27T02:49:38.084Z,1.43
2018-03-27T02:52:13.124Z,1.70
2018-03-27T02:54:48.064Z,1.93
2018-03-27T02:57:23.702Z,1.33
2018-03-27T02:59:59.043Z,1.60
2018-03-27T03:02:33.878Z,1.90
2018-03-27T03:05:08.908Z,2.00
2018-03-27T03:07:45.171Z,1.97
2018-03-27T03:10:20.823Z,2.03
2018-03-27T03:12:56.370Z,2.83
2018-03-27T03:15:32.221Z,2.70
2018-03-27T03:18:07.773Z,2.70
2018-03-27T03:20:42.803Z,2.40
2018-03-27T03:23:18.593Z,1.30
2018-03-27T03:25:54.107Z,1.73
2018-03-27T03:28:29.186Z,1.50
2018-03-27T03:31:05.343Z,1.30
2018-03-27T03:33:40.948Z,1.50
2018-03-27T03:36:15.780Z,1.70
2018-03-27T03:38:50.816Z,1.63
2018-03-27T03:41:25.619Z,1.13
2018-03-27T03:44:00.988Z,1.27
2018-03-27T03:46:36.231Z,1.63
2018-03-27T03:49:12.199Z,1.70
2018-03-27T03:51:47.631Z,1.43
2018-03-27T03:54:22.768Z,1.70
2018-03-27T03:56:58.557Z,1.73
2018-03-27T03:59:35.704Z,1.43
2018-03-27T04:02:10.812Z,1.97
2018-03-27T04:04:46.218Z,3.00
2018-03-27T04:07:21.217Z,1.80
2018-03-27T04:09:56.869Z,1.60
2018-03-27T04:12:31.856Z,2.07
2018-03-27T04:15:07.653Z,1.60
2018-03-27T04:17:42.902Z,1.50
2018-03-27T04:20:18.750Z,1.20
2018-03-27T04:22:53.990Z,1.57
2018-03-27T04:25:29.465Z,2.10
2018-03-27T04:28:04.407Z,1.63
2018-03-27T04:30:39.300Z,1.40
2018-03-27T04:33:15.663Z,1.30
2018-03-27T04:35:51.111Z,1.80
2018-03-27T04:38:25.838Z,1.70
2018-03-27T04:41:01.139Z,1.70
2018-03-27T04:43:36.194Z,1.50
2018-03-27T04:46:11.123Z,1.80
2018-03-27T04:48:45.899Z,1.60
2018-03-27T04:51:20.899Z,1.67
2018-03-27T04:53:56.560Z,1.70
2018-03-27T04:56:31.806Z,1.90
2018-03-27T04:59:06.472Z,1.73
2018-03-27T05:01:41.355Z,1.63
2018-03-27T05:04:16.097Z,1.80
2018-03-27T05:06:51.673Z,1.70
2018-03-27T05:09:27.175Z,1.73
2018-03-27T05:12:02.305Z,1.30
2018-03-27T05:14:37.661Z,2.17
2018-03-27T05:17:12.947Z,2.13
2018-03-27T05:19:48.265Z,2.30
2018-03-27T05:22:23.214Z,2.10
2018-03-27T05:24:58.942Z,1.80
2018-03-27T05:27:34.578Z,1.70
2018-03-27T05:30:11.565Z,1.87
2018-03-27T05:32:47.653Z,1.70
2018-03-27T05:35:23.603Z,1.90
2018-03-27T05:37:58.451Z,2.30
2018-03-27T05:40:34.058Z,1.63
2018-03-27T05:43:09.295Z,1.43
2018-03-27T05:45:44.902Z,1.60
2018-03-27T05:48:20.234Z,1.90
2018-03-27T05:50:55.297Z,1.80
2018-03-27T05:53:30.519Z,1.63
2018-03-27T05:56:05.577Z,1.50
2018-03-27T05:58:40.805Z,2.40
2018-03-27T06:01:16.727Z,2.50
2018-03-27T06:03:51.409Z,2.00
2018-03-27T06:06:26.912Z,1.90
2018-03-27T06:09:02.460Z,3.00
2018-03-27T06:11:37.343Z,3.30
2018-03-27T06:14:12.661Z,2.40
2018-03-27T06:16:47.616Z,2.10
2018-03-27T06:19:22.654Z,2.80
2018-03-27T06:21:57.685Z,1.97
2018-03-27T06:24:33.868Z,1.77
2018-03-27T06:27:09.536Z,2.40
2018-03-27T06:29:44.536Z,2.83
2018-03-27T06:32:19.260Z,2.60
2018-03-27T06:34:54.549Z,2.00
2018-03-27T06:37:30.149Z,3.20
2018-03-27T06:40:05.259Z,1.90
2018-03-27T06:42:40.281Z,2.07
2018-03-27T06:45:15.359Z,7.43
2018-03-27T06:47:50.207Z,2.40
2018-03-27T06:50:25.970Z,2.13
2018-03-27T06:53:00.973Z,1.87
2018-03-27T06:55:36.008Z,3.50
2018-03-27T06:58:11.349Z,2.30
2018-03-27T07:00:47.038Z,3.00
2018-03-27T07:03:22.595Z,2.70
2018-03-27T07:05:57.532Z,2.80
2018-03-27T07:08:32.793Z,2.97
2018-03-27T07:11:08.059Z,3.60
2018-03-27T07:13:43.081Z,2.30
2018-03-27T07:16:18.975Z,2.13
2018-03-27T07:18:54.714Z,2.73
2018-03-27T07:21:29.732Z,2.80
2018-03-27T07:24:04.690Z,1.50
2018-03-27T07:26:41.069Z,1.60
2018-03-27T07:29:17.478Z,1.70
2018-03-27T07:31:53.464Z,1.33
2018-03-27T07:34:29.531Z,2.90
2018-03-27T07:37:06.076Z,1.97
2018-03-27T07:39:40.927Z,2.43
2018-03-27T07:42:16.164Z,1.70
2018-03-27T07:44:51.404Z,1.70
2018-03-27T07:47:26.845Z,1.87
2018-03-27T07:50:02.497Z,2.50
2018-03-27T07:52:37.546Z,2.87
2018-03-27T07:55:12.361Z,3.00
2018-03-27T07:57:48.634Z,3.27
2018-03-27T08:00:24.484Z,2.40
2018-03-27T08:02:59.310Z,3.77
2018-03-27T08:05:34.015Z,3.10
2018-03-27T08:08:08.867Z,3.03
2018-03-27T08:10:43.836Z,3.17
2018-03-27T08:13:18.765Z,2.30
2018-03-27T08:15:54.281Z,2.83
2018-03-27T08:18:29.458Z,2.10
2018-03-27T08:21:04.422Z,3.17
2018-03-27T08:23:39.636Z,3.50
2018-03-27T08:26:14.658Z,1.90
2018-03-27T08:28:49.972Z,3.03
2018-03-27T08:31:25.208Z,2.67
2018-03-27T08:34:01.408Z,2.33
2018-03-27T08:36:36.509Z,2.70
2018-03-27T08:39:12.112Z,2.43
2018-03-27T08:41:47.121Z,2.03
2018-03-27T08:44:22.537Z,2.33
2018-03-27T08:46:57.978Z,2.47
2018-03-27T08:49:33.422Z,1.90
2018-03-27T08:52:09.791Z,2.30
2018-03-27T08:54:45.372Z,1.90
2018-03-27T08:57:21.144Z,2.40
2018-03-27T08:59:56.432Z,2.60
2018-03-27T09:02:32.030Z,4.50
2018-03-27T09:05:07.425Z,1.97
2018-03-27T09:07:42.474Z,2.13
2018-03-27T09:10:17.688Z,2.17
2018-03-27T09:12:52.530Z,2.37
2018-03-27T09:15:27.771Z,3.93
2018-03-27T09:18:02.600Z,1.97
2018-03-27T09:20:37.840Z,2.10
2018-03-27T09:23:12.552Z,1.70
2018-03-27T09:25:48.001Z,1.60
2018-03-27T09:28:23.236Z,2.10
2018-03-27T09:30:58.472Z,1.60
2018-03-27T09:33:33.838Z,1.53
2018-03-27T09:36:09.382Z,2.97
2018-03-27T09:38:44.214Z,1.73
2018-03-27T09:41:20.270Z,1.50
2018-03-27T09:43:55.106Z,2.50
2018-03-27T09:46:30.508Z,2.37
2018-03-27T09:49:05.481Z,2.10
2018-03-27T09:51:40.718Z,1.70
2018-03-27T09:54:15.779Z,1.97
2018-03-27T09:56:50.891Z,2.80
2018-03-27T09:59:25.933Z,2.50
2018-03-27T10:02:00.964Z,2.43
2018-03-27T10:04:36.203Z,2.50
2018-03-27T10:07:12.262Z,1.87
2018-03-27T10:09:47.914Z,1.67
2018-03-27T10:12:22.942Z,1.60
2018-03-27T10:14:58.798Z,2.63
2018-03-27T10:17:33.838Z,3.20
2018-03-27T10:20:09.074Z,2.80
2018-03-27T10:22:44.930Z,2.10
2018-03-27T10:25:19.966Z,1.50
2018-03-27T10:27:54.912Z,1.73
2018-03-27T10:30:30.648Z,2.63
2018-03-27T10:33:05.492Z,1.70
2018-03-27T10:35:40.309Z,1.33
2018-03-27T10:38:15.546Z,1.77
2018-03-27T10:40:52.014Z,1.20
2018-03-27T10:43:27.460Z,1.70
2018-03-27T10:46:02.261Z,1.90
2018-03-27T10:48:37.632Z,2.17
2018-03-27T10:51:12.934Z,2.53
2018-03-27T10:53:48.049Z,1.60
2018-03-27T10:56:22.882Z,1.77
2018-03-27T10:58:57.992Z,2.40
2018-03-27T11:01:32.809Z,1.67
2018-03-27T11:04:07.640Z,2.17
2018-03-27T11:06:43.702Z,2.80
2018-03-27T11:09:19.555Z,2.70
2018-03-27T11:11:54.589Z,2.30
2018-03-27T11:14:29.883Z,3.00
2018-03-27T11:17:05.377Z,2.40
2018-03-27T11:19:41.025Z,2.27
2018-03-27T11:22:16.264Z,2.10
2018-03-27T11:24:51.717Z,2.20
2018-03-27T11:27:27.154Z,2.73
2018-03-27T11:30:02.808Z,2.23
2018-03-27T11:32:37.838Z,2.40
2018-03-27T11:35:12.973Z,2.80
2018-03-27T11:37:47.804Z,2.33
2018-03-27T11:40:22.839Z,2.40
2018-03-27T11:42:58.023Z,3.93
2018-03-27T11:45:33.729Z,3.60
2018-03-27T11:48:10.052Z,3.90
2018-03-27T11:50:45.369Z,2.37
2018-03-27T11:53:20.485Z,3.20
2018-03-27T11:55:57.145Z,2.47
2018-03-27T11:58:32.391Z,1.80
2018-03-27T12:01:08.286Z,2.63
2018-03-27T12:03:43.076Z,2.20
2018-03-27T12:06:18.622Z,2.40
2018-03-27T12:08:55.086Z,2.00
2018-03-27T12:11:30.841Z,2.37
2018-03-27T12:14:07.101Z,2.60
2018-03-27T12:16:42.751Z,2.10
2018-03-27T12:19:18.746Z,2.47
2018-03-27T12:21:53.745Z,2.50
2018-03-27T12:24:29.153Z,2.33
2018-03-27T12:27:04.226Z,2.80
2018-03-27T12:29:39.570Z,2.17
2018-03-27T12:32:14.600Z,2.60
2018-03-27T12:34:49.640Z,2.90
2018-03-27T12:37:26.340Z,2.37
2018-03-27T12:40:01.489Z,2.70
2018-03-27T12:42:36.998Z,2.30
2018-03-27T12:45:11.838Z,2.60
2018-03-27T12:47:46.919Z,2.10
2018-03-27T12:50:22.578Z,2.17
2018-03-27T12:52:57.645Z,2.03
2018-03-27T12:55:32.488Z,2.13
2018-03-27T12:58:08.330Z,1.83
2018-03-27T13:00:43.163Z,2.40
2018-03-27T13:03:18.196Z,2.63
2018-03-27T13:05:53.342Z,2.23
2018-03-27T13:08:29.042Z,3.20
2018-03-27T13:11:04.026Z,2.63
2018-03-27T13:13:39.449Z,2.40
2018-03-27T13:16:15.554Z,2.43
2018-03-27T13:18:52.777Z,2.13
2018-03-27T13:21:28.532Z,2.00
2018-03-27T13:24:04.520Z,2.30
2018-03-27T13:26:40.220Z,2.07
2018-03-27T13:29:15.947Z,2.17
2018-03-27T13:31:51.143Z,1.80
2018-03-27T13:34:26.917Z,1.93
2018-03-27T13:37:02.357Z,1.93
2018-03-27T13:39:38.008Z,2.40
2018-03-27T13:42:13.463Z,2.30
2018-03-27T13:44:48.504Z,1.97
2018-03-27T13:47:24.300Z,2.60
2018-03-27T13:50:00.167Z,1.77
2018-03-27T13:52:35.745Z,3.03
2018-03-27T13:55:11.188Z,2.80
2018-03-27T13:57:47.039Z,2.77
2018-03-27T14:00:21.907Z,1.80
2018-03-27T14:02:57.928Z,1.83
2018-03-27T14:05:33.173Z,1.80
2018-03-27T14:08:08.818Z,2.13
2018-03-27T14:10:44.058Z,2.00
2018-03-27T14:13:19.196Z,2.30
2018-03-27T14:15:54.537Z,2.20
2018-03-27T14:18:29.470Z,2.23
2018-03-27T14:21:04.607Z,2.33
2018-03-27T14:23:39.651Z,1.30
2018-03-27T14:26:15.808Z,2.10
2018-03-27T14:31:33.656Z,1.47
2018-03-27T14:34:08.849Z,2.53
2018-03-27T14:36:43.834Z,2.00
2018-03-27T14:39:19.069Z,2.80
2018-03-27T14:41:54.160Z,1.57
2018-03-27T14:44:29.299Z,2.33
2018-03-27T14:47:04.993Z,2.03
2018-03-27T14:49:40.746Z,2.23
2018-03-27T14:52:16.599Z,2.43
2018-03-27T14:54:52.249Z,2.47
2018-03-27T14:57:28.018Z,2.57
2018-03-27T15:00:02.881Z,2.37
2018-03-27T15:02:37.764Z,3.63
2018-03-27T15:05:13.004Z,2.43
2018-03-27T15:07:47.938Z,2.60
2018-03-27T15:10:22.869Z,2.13
2018-03-27T15:12:58.433Z,1.73
2018-03-27T15:15:33.218Z,2.20
2018-03-27T15:18:08.288Z,3.43
2018-03-27T15:20:43.119Z,2.30
2018-03-27T15:23:18.051Z,2.77
2018-03-27T15:25:52.778Z,3.37
2018-03-27T15:28:28.015Z,1.80
2018-03-27T15:31:02.850Z,2.00
2018-03-27T15:33:38.113Z,2.30
2018-03-27T15:36:12.915Z,2.80
2018-03-27T15:38:49.118Z,2.80
2018-03-27T15:41:24.316Z,2.30
2018-03-27T15:44:00.127Z,2.40
2018-03-27T15:46:35.944Z,3.80
2018-03-27T15:49:11.576Z,2.43
2018-03-27T15:51:47.016Z,2.20
2018-03-27T15:54:22.671Z,3.03
2018-03-27T15:56:58.315Z,4.00
2018-03-27T15:59:33.698Z,8.23
2018-03-27T16:02:08.950Z,3.37
2018-03-27T16:04:44.238Z,2.53
2018-03-27T16:07:19.690Z,3.20
2018-03-27T16:09:55.337Z,3.47
2018-03-27T16:12:30.407Z,2.90
2018-03-27T16:15:05.618Z,2.77
2018-03-27T16:17:40.847Z,4.77
2018-03-27T16:20:15.989Z,3.03
2018-03-27T16:22:51.533Z,2.77
2018-03-27T16:25:27.288Z,3.00
2018-03-27T16:28:03.450Z,2.20
2018-03-27T16:30:39.241Z,3.00
2018-03-27T16:33:14.133Z,2.63
2018-03-27T16:35:49.175Z,2.80
2018-03-27T16:38:25.018Z,2.87
2018-03-27T16:41:01.084Z,3.90
2018-03-27T16:43:36.572Z,2.77
2018-03-27T16:46:13.407Z,2.90
2018-03-27T16:48:49.084Z,3.70
2018-03-27T16:51:24.295Z,2.27
2018-03-27T16:54:00.146Z,2.70
2018-03-27T16:56:35.385Z,1.73
2018-03-27T16:59:10.224Z,1.90
2018-03-27T17:01:46.322Z,2.20
2018-03-27T17:04:22.346Z,3.10
2018-03-27T17:06:57.962Z,2.90
2018-03-27T17:09:34.248Z,2.20
2018-03-27T17:12:09.486Z,1.90
2018-03-27T17:14:44.936Z,2.00
2018-03-27T17:17:20.171Z,4.67
2018-03-27T17:19:55.206Z,1.87
2018-03-27T17:22:31.270Z,2.97
2018-03-27T17:25:06.507Z,2.10
2018-03-27T17:27:41.950Z,2.83
2018-03-27T17:30:18.113Z,2.13
2018-03-27T17:32:53.047Z,2.30
2018-03-27T17:35:29.518Z,2.40
2018-03-27T17:38:04.753Z,3.20
2018-03-27T17:40:39.584Z,2.43
2018-03-27T17:43:14.623Z,1.73
2018-03-27T17:45:50.214Z,2.70
2018-03-27T17:48:25.398Z,2.43
2018-03-27T17:51:00.394Z,2.03
2018-03-27T17:53:36.749Z,2.47
2018-03-27T17:56:11.852Z,3.00
2018-03-27T17:58:46.885Z,2.10
2018-03-27T18:01:21.915Z,2.67
2018-03-27T18:03:57.166Z,4.27
2018-03-27T18:06:31.984Z,3.07
2018-03-27T18:09:07.380Z,3.20
2018-03-27T18:11:43.077Z,2.60
2018-03-27T18:14:17.908Z,2.03
2018-03-27T18:16:54.135Z,4.20
2018-03-27T18:19:29.113Z,3.20
2018-03-27T18:22:04.342Z,4.73
2018-03-27T18:24:40.009Z,3.57
2018-03-27T18:27:15.447Z,2.97
2018-03-27T18:29:51.095Z,2.80
2018-03-27T18:32:26.639Z,4.17
2018-03-27T18:35:02.641Z,4.53
2018-03-27T18:37:38.556Z,3.20
2018-03-27T18:40:14.722Z,2.87
2018-03-27T18:42:49.852Z,3.30
2018-03-27T18:45:24.672Z,5.17
2018-03-27T18:47:59.920Z,4.50
2018-03-27T18:50:35.786Z,4.30
2018-03-27T18:53:12.445Z,4.80
2018-03-27T18:55:47.133Z,3.33
2018-03-27T18:58:22.077Z,3.90
2018-03-27T19:00:57.554Z,4.90
2018-03-27T19:03:32.450Z,4.10
2018-03-27T19:06:08.424Z,4.83
2018-03-27T19:08:44.298Z,3.77
2018-03-27T19:11:19.761Z,4.60
2018-03-27T19:13:54.736Z,5.43
2018-03-27T19:16:30.636Z,4.17
2018-03-27T19:19:05.726Z,4.97
2018-03-27T19:21:41.873Z,5.30
2018-03-27T19:24:16.961Z,4.80
2018-03-27T19:26:53.225Z,4.87
2018-03-27T19:29:28.054Z,3.77
2018-03-27T19:32:03.453Z,4.57
2018-03-27T19:34:39.251Z,4.37
2018-03-27T19:37:14.900Z,5.17
2018-03-27T19:39:50.347Z,5.83
2018-03-27T19:42:25.798Z,5.07
2018-03-27T19:45:01.043Z,5.10
2018-03-27T19:47:36.078Z,5.50
2018-03-27T19:50:11.253Z,4.77
2018-03-27T19:52:46.753Z,5.47
2018-03-27T19:55:25.257Z,5.37
2018-03-27T19:58:00.529Z,4.80
2018-03-27T20:00:36.155Z,5.60
2018-03-27T20:03:11.600Z,5.73
2018-03-27T20:05:47.273Z,5.90
2018-03-27T20:08:22.961Z,6.80
2018-03-27T20:10:58.146Z,4.63
2018-03-27T20:13:34.721Z,5.00
2018-03-27T20:16:09.949Z,4.57
2018-03-27T20:18:44.920Z,5.40
2018-03-27T20:21:19.827Z,5.90
2018-03-27T20:23:55.075Z,5.90
2018-03-27T20:26:29.944Z,6.80
2018-03-27T20:29:05.740Z,4.23
2018-03-27T20:31:41.667Z,4.53
2018-03-27T20:34:17.785Z,5.60
2018-03-27T20:36:53.203Z,4.57
2018-03-27T20:39:29.065Z,6.03
2018-03-27T20:42:04.092Z,4.27
2018-03-27T20:44:39.742Z,5.40
2018-03-27T20:47:14.776Z,4.63
2018-03-27T20:49:50.628Z,8.93
2018-03-27T20:52:26.279Z,6.37
2018-03-27T20:55:01.832Z,4.90
2018-03-27T20:57:37.239Z,5.60
2018-03-27T21:00:12.627Z,4.50
2018-03-27T21:02:47.384Z,5.70
2018-03-27T21:05:22.681Z,6.27
2018-03-27T21:07:58.070Z,5.53
2018-03-27T21:10:34.169Z,6.63
2018-03-27T21:13:09.580Z,4.93
2018-03-27T21:15:44.741Z,4.80
2018-03-27T21:18:19.913Z,5.33
2018-03-27T21:20:55.146Z,5.33
2018-03-27T21:23:30.591Z,4.00
2018-03-27T21:26:06.195Z,5.30
2018-03-27T21:28:42.067Z,4.97
2018-03-27T21:31:18.548Z,6.03
2018-03-27T21:33:54.213Z,4.93
2018-03-27T21:36:29.044Z,4.00
2018-03-27T21:39:03.874Z,5.37
2018-03-27T21:41:39.116Z,6.30
2018-03-27T21:44:14.556Z,5.77
2018-03-27T21:46:50.210Z,5.37
2018-03-27T21:49:25.491Z,5.90
2018-03-27T21:52:01.404Z,6.70
2018-03-27T21:54:37.100Z,5.70
2018-03-27T21:57:12.502Z,5.00
2018-03-27T21:59:47.739Z,6.20
2018-03-27T22:02:23.492Z,4.80
2018-03-27T22:04:58.526Z,5.90
2018-03-27T22:07:33.868Z,6.07
2018-03-27T22:10:08.696Z,5.03
2018-03-27T22:12:43.936Z,4.80
2018-03-27T22:15:19.178Z,5.20
2018-03-27T22:17:54.011Z,5.67
2018-03-27T22:20:29.624Z,5.63
2018-03-27T22:23:05.307Z,7.60
2018-03-27T22:25:40.136Z,8.97
2018-03-27T22:28:14.966Z,5.23
2018-03-27T22:30:49.595Z,6.13
2018-03-27T22:33:25.038Z,7.70
2018-03-27T22:35:59.867Z,5.47
2018-03-27T22:38:34.909Z,5.20
2018-03-27T22:41:10.559Z,5.70
2018-03-27T22:43:45.996Z,6.53
2018-03-27T22:46:21.032Z,6.13
2018-03-27T22:48:56.172Z,6.07
2018-03-27T22:51:31.356Z,5.80
2018-03-27T22:54:06.853Z,5.97
2018-03-27T22:56:42.503Z,5.63
2018-03-27T22:59:18.356Z,6.60
2018-03-27T23:01:54.212Z,6.70
2018-03-27T23:04:29.041Z,6.63
2018-03-27T23:07:04.016Z,7.13
2018-03-27T23:09:40.545Z,5.67
2018-03-27T23:12:15.580Z,7.77
2018-03-27T23:14:52.050Z,6.47
2018-03-27T23:17:27.084Z,5.60
2018-03-27T23:20:02.734Z,7.80
2018-03-27T23:22:37.775Z,7.73
2018-03-27T23:25:13.219Z,6.57
2018-03-27T23:27:48.590Z,7.10
2018-03-27T23:30:23.693Z,6.17
2018-03-27T23:32:58.583Z,7.00
2018-03-27T23:35:34.281Z,7.03
2018-03-27T23:38:09.278Z,7.03
2018-03-27T23:40:45.352Z,7.77
2018-03-27T23:43:20.981Z,6.40
2018-03-27T23:45:57.978Z,5.47
2018-03-27T23:48:33.322Z,5.90
2018-03-27T23:51:09.094Z,6.10
2018-03-27T23:53:44.161Z,6.30
2018-03-27T23:56:20.391Z,6.27
2018-03-27T23:58:56.564Z,5.30
